<?xml version="1.0" encoding="UTF-8" standalone="no" ?>
<gpx xmlns="http://www.topografix.com/GPX/1/1" xmlns:xsi="http://www.w3.org/2001/XMLSchema-instance" xsi:schemaLocation="http://www.topografix.com/GPX/1/1 http://www.topografix.com/GPX/1/1/gpx.xsd" version="1.1" creator="VisuGPX - https://www.visugpx.com">
  <metadata>
    <name>9456640-1-ROBION-BONNIEUX (20/05/19)</name>
    <desc><![CDATA[Etape Robion Bonnieux avec 5 attelages organisée par l'Association ADADA]]></desc>
  </metadata>
  <trk>
    <name><![CDATA[9456640-1-ROBION-BONNIEUX (20/05/19)]]></name>
    <trkseg>
      <trkpt lat="43.85313" lon="5.10957">
        <ele>101</ele>
        <time>2019-01-18T10:02:02Z</time>
      </trkpt>
      <trkpt lat="43.85298" lon="5.10911">
        <ele>102</ele>
        <time>2019-01-18T10:03:02Z</time>
      </trkpt>
      <trkpt lat="43.85035" lon="5.11056">
        <ele>110</ele>
        <time>2019-01-18T10:04:02Z</time>
      </trkpt>
      <trkpt lat="43.84841" lon="5.11154">
        <ele>124</ele>
        <time>2019-01-18T10:05:02Z</time>
      </trkpt>
      <trkpt lat="43.84801" lon="5.11178">
        <ele>126</ele>
        <time>2019-01-18T10:06:02Z</time>
      </trkpt>
      <trkpt lat="43.84692" lon="5.11248">
        <ele>134</ele>
        <time>2019-01-18T10:07:02Z</time>
      </trkpt>
      <trkpt lat="43.84654" lon="5.11274">
        <ele>137</ele>
        <time>2019-01-18T10:08:02Z</time>
      </trkpt>
      <trkpt lat="43.84817" lon="5.11451">
        <ele>128</ele>
        <time>2019-01-18T10:09:02Z</time>
      </trkpt>
      <trkpt lat="43.84793" lon="5.11605">
        <ele>128</ele>
        <time>2019-01-18T10:10:02Z</time>
      </trkpt>
      <trkpt lat="43.84765" lon="5.11707">
        <ele>131</ele>
        <time>2019-01-18T10:11:02Z</time>
      </trkpt>
      <trkpt lat="43.8474" lon="5.1183">
        <ele>134</ele>
        <time>2019-01-18T10:12:02Z</time>
      </trkpt>
      <trkpt lat="43.84726" lon="5.11876">
        <ele>134</ele>
        <time>2019-01-18T10:13:02Z</time>
      </trkpt>
      <trkpt lat="43.84687" lon="5.11964">
        <ele>133</ele>
        <time>2019-01-18T10:14:02Z</time>
      </trkpt>
      <trkpt lat="43.84611" lon="5.12181">
        <ele>135</ele>
        <time>2019-01-18T10:15:02Z</time>
      </trkpt>
      <trkpt lat="43.8456" lon="5.12333">
        <ele>133</ele>
        <time>2019-01-18T10:16:02Z</time>
      </trkpt>
      <trkpt lat="43.84544" lon="5.12397">
        <ele>130</ele>
        <time>2019-01-18T10:17:02Z</time>
      </trkpt>
      <trkpt lat="43.84546" lon="5.12476">
        <ele>126</ele>
        <time>2019-01-18T10:18:02Z</time>
      </trkpt>
      <trkpt lat="43.84548" lon="5.12557">
        <ele>126</ele>
        <time>2019-01-18T10:19:02Z</time>
      </trkpt>
      <trkpt lat="43.84574" lon="5.12573">
        <ele>123</ele>
        <time>2019-01-18T10:20:02Z</time>
      </trkpt>
      <trkpt lat="43.84488" lon="5.12722">
        <ele>129</ele>
        <time>2019-01-18T10:21:02Z</time>
      </trkpt>
      <trkpt lat="43.84385" lon="5.12868">
        <ele>131</ele>
        <time>2019-01-18T10:22:02Z</time>
      </trkpt>
      <trkpt lat="43.84271" lon="5.13016">
        <ele>133</ele>
        <time>2019-01-18T10:23:02Z</time>
      </trkpt>
      <trkpt lat="43.84213" lon="5.13102">
        <ele>134</ele>
        <time>2019-01-18T10:24:02Z</time>
      </trkpt>
      <trkpt lat="43.8416" lon="5.13168">
        <ele>135</ele>
        <time>2019-01-18T10:25:02Z</time>
      </trkpt>
      <trkpt lat="43.84086" lon="5.13246">
        <ele>140</ele>
        <time>2019-01-18T10:26:02Z</time>
      </trkpt>
      <trkpt lat="43.84042" lon="5.13259">
        <ele>143</ele>
        <time>2019-01-18T10:27:02Z</time>
      </trkpt>
      <trkpt lat="43.83979" lon="5.13308">
        <ele>147</ele>
        <time>2019-01-18T10:28:02Z</time>
      </trkpt>
      <trkpt lat="43.83896" lon="5.13441">
        <ele>149</ele>
        <time>2019-01-18T10:29:02Z</time>
      </trkpt>
      <trkpt lat="43.83829" lon="5.13559">
        <ele>151</ele>
        <time>2019-01-18T10:30:02Z</time>
      </trkpt>
      <trkpt lat="43.83758" lon="5.13639">
        <ele>155</ele>
        <time>2019-01-18T10:31:02Z</time>
      </trkpt>
      <trkpt lat="43.83749" lon="5.13727">
        <ele>156</ele>
        <time>2019-01-18T10:32:02Z</time>
      </trkpt>
      <trkpt lat="43.83688" lon="5.13812">
        <ele>163</ele>
        <time>2019-01-18T10:33:02Z</time>
      </trkpt>
      <trkpt lat="43.83657" lon="5.13887">
        <ele>169</ele>
        <time>2019-01-18T10:34:02Z</time>
      </trkpt>
      <trkpt lat="43.83605" lon="5.1397">
        <ele>171</ele>
        <time>2019-01-18T10:35:02Z</time>
      </trkpt>
      <trkpt lat="43.83578" lon="5.14037">
        <ele>171</ele>
        <time>2019-01-18T10:36:02Z</time>
      </trkpt>
      <trkpt lat="43.83557" lon="5.14088">
        <ele>173</ele>
        <time>2019-01-18T10:37:02Z</time>
      </trkpt>
      <trkpt lat="43.83535" lon="5.14197">
        <ele>168</ele>
        <time>2019-01-18T10:38:02Z</time>
      </trkpt>
      <trkpt lat="43.83591" lon="5.14285">
        <ele>164</ele>
        <time>2019-01-18T10:39:02Z</time>
      </trkpt>
      <trkpt lat="43.83639" lon="5.14347">
        <ele>163</ele>
        <time>2019-01-18T10:40:02Z</time>
      </trkpt>
      <trkpt lat="43.83496" lon="5.14687">
        <ele>172</ele>
        <time>2019-01-18T10:41:02Z</time>
      </trkpt>
      <trkpt lat="43.83473" lon="5.1475">
        <ele>174</ele>
        <time>2019-01-18T10:42:02Z</time>
      </trkpt>
      <trkpt lat="43.83453" lon="5.14856">
        <ele>174</ele>
        <time>2019-01-18T10:43:02Z</time>
      </trkpt>
      <trkpt lat="43.83448" lon="5.14972">
        <ele>171</ele>
        <time>2019-01-18T10:44:02Z</time>
      </trkpt>
      <trkpt lat="43.83438" lon="5.15045">
        <ele>167</ele>
        <time>2019-01-18T10:45:02Z</time>
      </trkpt>
      <trkpt lat="43.83389" lon="5.15195">
        <ele>163</ele>
        <time>2019-01-18T10:46:02Z</time>
      </trkpt>
      <trkpt lat="43.83362" lon="5.15249">
        <ele>164</ele>
        <time>2019-01-18T10:47:02Z</time>
      </trkpt>
      <trkpt lat="43.83331" lon="5.15329">
        <ele>166</ele>
        <time>2019-01-18T10:48:02Z</time>
      </trkpt>
      <trkpt lat="43.83309" lon="5.15409">
        <ele>168</ele>
        <time>2019-01-18T10:49:02Z</time>
      </trkpt>
      <trkpt lat="43.83305" lon="5.15432">
        <ele>169</ele>
        <time>2019-01-18T10:50:02Z</time>
      </trkpt>
      <trkpt lat="43.83313" lon="5.15469">
        <ele>170</ele>
        <time>2019-01-18T10:51:02Z</time>
      </trkpt>
      <trkpt lat="43.83228" lon="5.15602">
        <ele>182</ele>
        <time>2019-01-18T10:52:02Z</time>
      </trkpt>
      <trkpt lat="43.83216" lon="5.15709">
        <ele>192</ele>
        <time>2019-01-18T10:53:02Z</time>
      </trkpt>
      <trkpt lat="43.83183" lon="5.1583">
        <ele>203</ele>
        <time>2019-01-18T10:54:02Z</time>
      </trkpt>
      <trkpt lat="43.83175" lon="5.15837">
        <ele>204</ele>
        <time>2019-01-18T10:55:02Z</time>
      </trkpt>
      <trkpt lat="43.83196" lon="5.15951">
        <ele>198</ele>
        <time>2019-01-18T10:56:02Z</time>
      </trkpt>
      <trkpt lat="43.83173" lon="5.16203">
        <ele>186</ele>
        <time>2019-01-18T10:57:02Z</time>
      </trkpt>
      <trkpt lat="43.83084" lon="5.16534">
        <ele>195</ele>
        <time>2019-01-18T10:58:02Z</time>
      </trkpt>
      <trkpt lat="43.83069" lon="5.16532">
        <ele>196</ele>
        <time>2019-01-18T10:59:02Z</time>
      </trkpt>
      <trkpt lat="43.82966" lon="5.16482">
        <ele>207</ele>
        <time>2019-01-18T11:00:02Z</time>
      </trkpt>
      <trkpt lat="43.82936" lon="5.16462">
        <ele>210</ele>
        <time>2019-01-18T11:01:02Z</time>
      </trkpt>
      <trkpt lat="43.82908" lon="5.16431">
        <ele>214</ele>
        <time>2019-01-18T11:02:02Z</time>
      </trkpt>
      <trkpt lat="43.82899" lon="5.16406">
        <ele>218</ele>
        <time>2019-01-18T11:03:02Z</time>
      </trkpt>
      <trkpt lat="43.82878" lon="5.16289">
        <ele>230</ele>
        <time>2019-01-18T11:04:02Z</time>
      </trkpt>
      <trkpt lat="43.82817" lon="5.16248">
        <ele>230</ele>
        <time>2019-01-18T11:05:02Z</time>
      </trkpt>
      <trkpt lat="43.82794" lon="5.16276">
        <ele>231</ele>
        <time>2019-01-18T11:06:02Z</time>
      </trkpt>
      <trkpt lat="43.8277" lon="5.16261">
        <ele>236</ele>
        <time>2019-01-18T11:07:02Z</time>
      </trkpt>
      <trkpt lat="43.82755" lon="5.16258">
        <ele>238</ele>
        <time>2019-01-18T11:08:02Z</time>
      </trkpt>
      <trkpt lat="43.82738" lon="5.16274">
        <ele>240</ele>
        <time>2019-01-18T11:09:02Z</time>
      </trkpt>
      <trkpt lat="43.82769" lon="5.16354">
        <ele>232</ele>
        <time>2019-01-18T11:10:02Z</time>
      </trkpt>
      <trkpt lat="43.82764" lon="5.16413">
        <ele>236</ele>
        <time>2019-01-18T11:11:02Z</time>
      </trkpt>
      <trkpt lat="43.82713" lon="5.16654">
        <ele>247</ele>
        <time>2019-01-18T11:12:02Z</time>
      </trkpt>
      <trkpt lat="43.82698" lon="5.16822">
        <ele>250</ele>
        <time>2019-01-18T11:13:02Z</time>
      </trkpt>
      <trkpt lat="43.82689" lon="5.16887">
        <ele>251</ele>
        <time>2019-01-18T11:14:02Z</time>
      </trkpt>
      <trkpt lat="43.82694" lon="5.1694">
        <ele>249</ele>
        <time>2019-01-18T11:15:02Z</time>
      </trkpt>
      <trkpt lat="43.82685" lon="5.16984">
        <ele>247</ele>
        <time>2019-01-18T11:16:02Z</time>
      </trkpt>
      <trkpt lat="43.8269" lon="5.17077">
        <ele>241</ele>
        <time>2019-01-18T11:17:02Z</time>
      </trkpt>
      <trkpt lat="43.82674" lon="5.17125">
        <ele>237</ele>
        <time>2019-01-18T11:18:02Z</time>
      </trkpt>
      <trkpt lat="43.82668" lon="5.17172">
        <ele>233</ele>
        <time>2019-01-18T11:19:02Z</time>
      </trkpt>
      <trkpt lat="43.82638" lon="5.17224">
        <ele>232</ele>
        <time>2019-01-18T11:20:02Z</time>
      </trkpt>
      <trkpt lat="43.82626" lon="5.17327">
        <ele>223</ele>
        <time>2019-01-18T11:21:02Z</time>
      </trkpt>
      <trkpt lat="43.82613" lon="5.17389">
        <ele>226</ele>
        <time>2019-01-18T11:22:02Z</time>
      </trkpt>
      <trkpt lat="43.82612" lon="5.17459">
        <ele>229</ele>
        <time>2019-01-18T11:23:02Z</time>
      </trkpt>
      <trkpt lat="43.82609" lon="5.17556">
        <ele>232</ele>
        <time>2019-01-18T11:24:02Z</time>
      </trkpt>
      <trkpt lat="43.82596" lon="5.17606">
        <ele>232</ele>
        <time>2019-01-18T11:25:02Z</time>
      </trkpt>
      <trkpt lat="43.82561" lon="5.17684">
        <ele>232</ele>
        <time>2019-01-18T11:26:02Z</time>
      </trkpt>
      <trkpt lat="43.82534" lon="5.17806">
        <ele>232</ele>
        <time>2019-01-18T11:27:02Z</time>
      </trkpt>
      <trkpt lat="43.8254" lon="5.17877">
        <ele>224</ele>
        <time>2019-01-18T11:28:02Z</time>
      </trkpt>
      <trkpt lat="43.82535" lon="5.17902">
        <ele>222</ele>
        <time>2019-01-18T11:29:02Z</time>
      </trkpt>
      <trkpt lat="43.82494" lon="5.1798">
        <ele>216</ele>
        <time>2019-01-18T11:30:02Z</time>
      </trkpt>
      <trkpt lat="43.82492" lon="5.18018">
        <ele>214</ele>
        <time>2019-01-18T11:31:02Z</time>
      </trkpt>
      <trkpt lat="43.82476" lon="5.18148">
        <ele>222</ele>
        <time>2019-01-18T11:32:02Z</time>
      </trkpt>
      <trkpt lat="43.82456" lon="5.18225">
        <ele>229</ele>
        <time>2019-01-18T11:33:02Z</time>
      </trkpt>
      <trkpt lat="43.82427" lon="5.18322">
        <ele>234</ele>
        <time>2019-01-18T11:34:02Z</time>
      </trkpt>
      <trkpt lat="43.82418" lon="5.18392">
        <ele>235</ele>
        <time>2019-01-18T11:35:02Z</time>
      </trkpt>
      <trkpt lat="43.82432" lon="5.18518">
        <ele>238</ele>
        <time>2019-01-18T11:36:02Z</time>
      </trkpt>
      <trkpt lat="43.82407" lon="5.186">
        <ele>237</ele>
        <time>2019-01-18T11:37:02Z</time>
      </trkpt>
      <trkpt lat="43.82389" lon="5.18703">
        <ele>231</ele>
        <time>2019-01-18T11:38:02Z</time>
      </trkpt>
      <trkpt lat="43.82345" lon="5.18827">
        <ele>228</ele>
        <time>2019-01-18T11:39:02Z</time>
      </trkpt>
      <trkpt lat="43.82353" lon="5.18854">
        <ele>229</ele>
        <time>2019-01-18T11:40:02Z</time>
      </trkpt>
      <trkpt lat="43.82386" lon="5.18859">
        <ele>228</ele>
        <time>2019-01-18T11:41:02Z</time>
      </trkpt>
      <trkpt lat="43.82434" lon="5.1885">
        <ele>227</ele>
        <time>2019-01-18T11:42:02Z</time>
      </trkpt>
      <trkpt lat="43.82535" lon="5.1878">
        <ele>223</ele>
        <time>2019-01-18T11:43:02Z</time>
      </trkpt>
      <trkpt lat="43.82614" lon="5.18757">
        <ele>218</ele>
        <time>2019-01-18T11:44:02Z</time>
      </trkpt>
      <trkpt lat="43.82641" lon="5.18764">
        <ele>218</ele>
        <time>2019-01-18T11:45:02Z</time>
      </trkpt>
      <trkpt lat="43.82727" lon="5.18832">
        <ele>215</ele>
        <time>2019-01-18T11:46:02Z</time>
      </trkpt>
      <trkpt lat="43.82803" lon="5.18879">
        <ele>214</ele>
        <time>2019-01-18T11:47:02Z</time>
      </trkpt>
      <trkpt lat="43.82838" lon="5.18888">
        <ele>214</ele>
        <time>2019-01-18T11:48:02Z</time>
      </trkpt>
      <trkpt lat="43.82911" lon="5.18894">
        <ele>216</ele>
        <time>2019-01-18T11:49:02Z</time>
      </trkpt>
      <trkpt lat="43.83012" lon="5.18861">
        <ele>215</ele>
        <time>2019-01-18T11:50:02Z</time>
      </trkpt>
      <trkpt lat="43.8306" lon="5.189">
        <ele>217</ele>
        <time>2019-01-18T11:51:02Z</time>
      </trkpt>
      <trkpt lat="43.83094" lon="5.18911">
        <ele>218</ele>
        <time>2019-01-18T11:52:02Z</time>
      </trkpt>
      <trkpt lat="43.8317" lon="5.18928">
        <ele>219</ele>
        <time>2019-01-18T11:53:02Z</time>
      </trkpt>
      <trkpt lat="43.83228" lon="5.18945">
        <ele>218</ele>
        <time>2019-01-18T11:54:02Z</time>
      </trkpt>
      <trkpt lat="43.83296" lon="5.19108">
        <ele>222</ele>
        <time>2019-01-18T11:55:02Z</time>
      </trkpt>
      <trkpt lat="43.83317" lon="5.192">
        <ele>226</ele>
        <time>2019-01-18T11:56:02Z</time>
      </trkpt>
      <trkpt lat="43.83306" lon="5.19429">
        <ele>229</ele>
        <time>2019-01-18T11:57:02Z</time>
      </trkpt>
      <trkpt lat="43.83285" lon="5.19509">
        <ele>230</ele>
        <time>2019-01-18T11:58:02Z</time>
      </trkpt>
      <trkpt lat="43.83377" lon="5.19588">
        <ele>231</ele>
        <time>2019-01-18T11:59:02Z</time>
      </trkpt>
      <trkpt lat="43.8342" lon="5.19662">
        <ele>229</ele>
        <time>2019-01-18T12:00:02Z</time>
      </trkpt>
      <trkpt lat="43.83454" lon="5.19661">
        <ele>227</ele>
        <time>2019-01-18T12:01:02Z</time>
      </trkpt>
      <trkpt lat="43.83458" lon="5.19679">
        <ele>225</ele>
        <time>2019-01-18T12:02:02Z</time>
      </trkpt>
      <trkpt lat="43.83416" lon="5.19709">
        <ele>222</ele>
        <time>2019-01-18T12:03:02Z</time>
      </trkpt>
      <trkpt lat="43.83358" lon="5.19775">
        <ele>223</ele>
        <time>2019-01-18T12:04:02Z</time>
      </trkpt>
      <trkpt lat="43.83336" lon="5.19797">
        <ele>225</ele>
        <time>2019-01-18T12:05:02Z</time>
      </trkpt>
      <trkpt lat="43.83302" lon="5.19882">
        <ele>223</ele>
        <time>2019-01-18T12:06:02Z</time>
      </trkpt>
      <trkpt lat="43.83316" lon="5.20001">
        <ele>209</ele>
        <time>2019-01-18T12:07:02Z</time>
      </trkpt>
      <trkpt lat="43.83253" lon="5.2013">
        <ele>203</ele>
        <time>2019-01-18T12:08:02Z</time>
      </trkpt>
      <trkpt lat="43.83217" lon="5.20163">
        <ele>205</ele>
        <time>2019-01-18T12:09:02Z</time>
      </trkpt>
      <trkpt lat="43.83202" lon="5.20218">
        <ele>200</ele>
        <time>2019-01-18T12:10:02Z</time>
      </trkpt>
      <trkpt lat="43.83185" lon="5.2024">
        <ele>199</ele>
        <time>2019-01-18T12:11:02Z</time>
      </trkpt>
      <trkpt lat="43.83179" lon="5.20265">
        <ele>197</ele>
        <time>2019-01-18T12:12:02Z</time>
      </trkpt>
      <trkpt lat="43.83184" lon="5.20289">
        <ele>195</ele>
        <time>2019-01-18T12:13:02Z</time>
      </trkpt>
      <trkpt lat="43.83096" lon="5.20369">
        <ele>197</ele>
        <time>2019-01-18T12:14:02Z</time>
      </trkpt>
      <trkpt lat="43.83048" lon="5.20386">
        <ele>199</ele>
        <time>2019-01-18T12:15:02Z</time>
      </trkpt>
      <trkpt lat="43.83039" lon="5.20391">
        <ele>199</ele>
        <time>2019-01-18T12:16:02Z</time>
      </trkpt>
      <trkpt lat="43.83018" lon="5.20396">
        <ele>199</ele>
        <time>2019-01-18T12:17:02Z</time>
      </trkpt>
      <trkpt lat="43.82967" lon="5.20358">
        <ele>206</ele>
        <time>2019-01-18T12:18:02Z</time>
      </trkpt>
      <trkpt lat="43.82914" lon="5.20355">
        <ele>208</ele>
        <time>2019-01-18T12:19:02Z</time>
      </trkpt>
      <trkpt lat="43.82806" lon="5.20306">
        <ele>217</ele>
        <time>2019-01-18T12:20:02Z</time>
      </trkpt>
      <trkpt lat="43.82712" lon="5.20265">
        <ele>224</ele>
        <time>2019-01-18T12:21:02Z</time>
      </trkpt>
      <trkpt lat="43.82658" lon="5.20262">
        <ele>227</ele>
        <time>2019-01-18T12:22:02Z</time>
      </trkpt>
      <trkpt lat="43.82622" lon="5.20255">
        <ele>228</ele>
        <time>2019-01-18T12:23:02Z</time>
      </trkpt>
      <trkpt lat="43.82568" lon="5.20249">
        <ele>232</ele>
        <time>2019-01-18T12:24:02Z</time>
      </trkpt>
      <trkpt lat="43.82524" lon="5.20252">
        <ele>235</ele>
        <time>2019-01-18T12:25:02Z</time>
      </trkpt>
      <trkpt lat="43.82443" lon="5.20271">
        <ele>242</ele>
        <time>2019-01-18T12:26:02Z</time>
      </trkpt>
      <trkpt lat="43.82243" lon="5.20313">
        <ele>241</ele>
        <time>2019-01-18T12:27:02Z</time>
      </trkpt>
      <trkpt lat="43.82219" lon="5.20316">
        <ele>245</ele>
        <time>2019-01-18T12:28:02Z</time>
      </trkpt>
      <trkpt lat="43.82078" lon="5.20271">
        <ele>255</ele>
        <time>2019-01-18T12:29:02Z</time>
      </trkpt>
      <trkpt lat="43.82043" lon="5.20265">
        <ele>254</ele>
        <time>2019-01-18T12:30:02Z</time>
      </trkpt>
      <trkpt lat="43.81989" lon="5.20287">
        <ele>256</ele>
        <time>2019-01-18T12:31:02Z</time>
      </trkpt>
      <trkpt lat="43.81975" lon="5.20283">
        <ele>255</ele>
        <time>2019-01-18T12:32:02Z</time>
      </trkpt>
      <trkpt lat="43.81954" lon="5.20279">
        <ele>255</ele>
        <time>2019-01-18T12:33:02Z</time>
      </trkpt>
      <trkpt lat="43.81942" lon="5.2026">
        <ele>253</ele>
        <time>2019-01-18T12:34:02Z</time>
      </trkpt>
      <trkpt lat="43.81834" lon="5.20278">
        <ele>256</ele>
        <time>2019-01-18T12:35:02Z</time>
      </trkpt>
      <trkpt lat="43.81795" lon="5.20276">
        <ele>258</ele>
        <time>2019-01-18T12:36:02Z</time>
      </trkpt>
      <trkpt lat="43.81681" lon="5.2028">
        <ele>269</ele>
        <time>2019-01-18T12:37:02Z</time>
      </trkpt>
      <trkpt lat="43.81637" lon="5.20278">
        <ele>277</ele>
        <time>2019-01-18T12:38:02Z</time>
      </trkpt>
      <trkpt lat="43.81616" lon="5.20289">
        <ele>280</ele>
        <time>2019-01-18T12:39:02Z</time>
      </trkpt>
      <trkpt lat="43.81585" lon="5.20305">
        <ele>284</ele>
        <time>2019-01-18T12:40:02Z</time>
      </trkpt>
      <trkpt lat="43.8156" lon="5.20298">
        <ele>287</ele>
        <time>2019-01-18T12:41:02Z</time>
      </trkpt>
      <trkpt lat="43.81552" lon="5.20301">
        <ele>288</ele>
        <time>2019-01-18T12:42:02Z</time>
      </trkpt>
      <trkpt lat="43.81565" lon="5.20326">
        <ele>284</ele>
        <time>2019-01-18T12:43:02Z</time>
      </trkpt>
      <trkpt lat="43.81589" lon="5.20338">
        <ele>283</ele>
        <time>2019-01-18T12:44:02Z</time>
      </trkpt>
      <trkpt lat="43.81649" lon="5.20348">
        <ele>278</ele>
        <time>2019-01-18T12:45:02Z</time>
      </trkpt>
      <trkpt lat="43.81681" lon="5.20391">
        <ele>283</ele>
        <time>2019-01-18T12:46:02Z</time>
      </trkpt>
      <trkpt lat="43.81675" lon="5.20555">
        <ele>291</ele>
        <time>2019-01-18T12:47:02Z</time>
      </trkpt>
      <trkpt lat="43.81654" lon="5.20638">
        <ele>289</ele>
        <time>2019-01-18T12:48:02Z</time>
      </trkpt>
      <trkpt lat="43.81643" lon="5.20751">
        <ele>284</ele>
        <time>2019-01-18T12:49:02Z</time>
      </trkpt>
      <trkpt lat="43.81641" lon="5.20895">
        <ele>272</ele>
        <time>2019-01-18T12:50:02Z</time>
      </trkpt>
      <trkpt lat="43.81648" lon="5.20918">
        <ele>269</ele>
        <time>2019-01-18T12:51:02Z</time>
      </trkpt>
      <trkpt lat="43.81678" lon="5.20972">
        <ele>266</ele>
        <time>2019-01-18T12:52:02Z</time>
      </trkpt>
      <trkpt lat="43.81696" lon="5.21004">
        <ele>264</ele>
        <time>2019-01-18T12:53:02Z</time>
      </trkpt>
      <trkpt lat="43.81716" lon="5.21113">
        <ele>259</ele>
        <time>2019-01-18T12:54:02Z</time>
      </trkpt>
      <trkpt lat="43.81699" lon="5.21229">
        <ele>253</ele>
        <time>2019-01-18T12:55:02Z</time>
      </trkpt>
      <trkpt lat="43.81689" lon="5.21276">
        <ele>253</ele>
        <time>2019-01-18T12:56:02Z</time>
      </trkpt>
      <trkpt lat="43.81688" lon="5.21317">
        <ele>253</ele>
        <time>2019-01-18T12:57:02Z</time>
      </trkpt>
      <trkpt lat="43.81694" lon="5.21363">
        <ele>255</ele>
        <time>2019-01-18T12:58:02Z</time>
      </trkpt>
      <trkpt lat="43.81685" lon="5.21395">
        <ele>260</ele>
        <time>2019-01-18T12:59:02Z</time>
      </trkpt>
      <trkpt lat="43.81676" lon="5.21434">
        <ele>265</ele>
        <time>2019-01-18T13:00:02Z</time>
      </trkpt>
      <trkpt lat="43.81665" lon="5.21462">
        <ele>269</ele>
        <time>2019-01-18T13:01:02Z</time>
      </trkpt>
      <trkpt lat="43.81649" lon="5.21658">
        <ele>278</ele>
        <time>2019-01-18T13:02:02Z</time>
      </trkpt>
      <trkpt lat="43.81646" lon="5.2168">
        <ele>279</ele>
        <time>2019-01-18T13:03:02Z</time>
      </trkpt>
      <trkpt lat="43.81633" lon="5.2174">
        <ele>283</ele>
        <time>2019-01-18T13:04:02Z</time>
      </trkpt>
      <trkpt lat="43.81632" lon="5.2182">
        <ele>285</ele>
        <time>2019-01-18T13:05:02Z</time>
      </trkpt>
      <trkpt lat="43.8163" lon="5.21888">
        <ele>285</ele>
        <time>2019-01-18T13:06:02Z</time>
      </trkpt>
      <trkpt lat="43.81622" lon="5.2213">
        <ele>281</ele>
        <time>2019-01-18T13:07:02Z</time>
      </trkpt>
      <trkpt lat="43.81622" lon="5.22322">
        <ele>280</ele>
        <time>2019-01-18T13:08:02Z</time>
      </trkpt>
      <trkpt lat="43.81649" lon="5.22541">
        <ele>278</ele>
        <time>2019-01-18T13:09:02Z</time>
      </trkpt>
      <trkpt lat="43.81649" lon="5.22554">
        <ele>278</ele>
        <time>2019-01-18T13:10:02Z</time>
      </trkpt>
      <trkpt lat="43.81636" lon="5.22632">
        <ele>279</ele>
        <time>2019-01-18T13:11:02Z</time>
      </trkpt>
      <trkpt lat="43.81636" lon="5.2267">
        <ele>277</ele>
        <time>2019-01-18T13:12:02Z</time>
      </trkpt>
      <trkpt lat="43.81617" lon="5.22761">
        <ele>277</ele>
        <time>2019-01-18T13:13:02Z</time>
      </trkpt>
      <trkpt lat="43.81609" lon="5.22785">
        <ele>278</ele>
        <time>2019-01-18T13:14:02Z</time>
      </trkpt>
      <trkpt lat="43.81621" lon="5.2296">
        <ele>272</ele>
        <time>2019-01-18T13:15:02Z</time>
      </trkpt>
      <trkpt lat="43.81624" lon="5.23083">
        <ele>263</ele>
        <time>2019-01-18T13:16:02Z</time>
      </trkpt>
      <trkpt lat="43.81627" lon="5.23101">
        <ele>263</ele>
        <time>2019-01-18T13:17:02Z</time>
      </trkpt>
      <trkpt lat="43.81622" lon="5.23121">
        <ele>264</ele>
        <time>2019-01-18T13:18:02Z</time>
      </trkpt>
      <trkpt lat="43.81629" lon="5.23185">
        <ele>268</ele>
        <time>2019-01-18T13:19:02Z</time>
      </trkpt>
      <trkpt lat="43.81642" lon="5.23208">
        <ele>270</ele>
        <time>2019-01-18T13:20:02Z</time>
      </trkpt>
      <trkpt lat="43.81657" lon="5.23217">
        <ele>270</ele>
        <time>2019-01-18T13:21:02Z</time>
      </trkpt>
      <trkpt lat="43.81671" lon="5.23248">
        <ele>273</ele>
        <time>2019-01-18T13:22:02Z</time>
      </trkpt>
      <trkpt lat="43.81671" lon="5.23296">
        <ele>273</ele>
        <time>2019-01-18T13:23:02Z</time>
      </trkpt>
      <trkpt lat="43.81651" lon="5.23355">
        <ele>272</ele>
        <time>2019-01-18T13:24:02Z</time>
      </trkpt>
      <trkpt lat="43.81625" lon="5.2338">
        <ele>274</ele>
        <time>2019-01-18T13:25:02Z</time>
      </trkpt>
      <trkpt lat="43.81617" lon="5.23408">
        <ele>272</ele>
        <time>2019-01-18T13:26:02Z</time>
      </trkpt>
      <trkpt lat="43.81618" lon="5.23439">
        <ele>270</ele>
        <time>2019-01-18T13:27:02Z</time>
      </trkpt>
      <trkpt lat="43.81608" lon="5.23469">
        <ele>270</ele>
        <time>2019-01-18T13:28:02Z</time>
      </trkpt>
      <trkpt lat="43.81607" lon="5.23486">
        <ele>269</ele>
        <time>2019-01-18T13:29:02Z</time>
      </trkpt>
      <trkpt lat="43.81631" lon="5.23548">
        <ele>269</ele>
        <time>2019-01-18T13:30:02Z</time>
      </trkpt>
      <trkpt lat="43.81631" lon="5.23586">
        <ele>272</ele>
        <time>2019-01-18T13:31:02Z</time>
      </trkpt>
      <trkpt lat="43.81645" lon="5.23641">
        <ele>278</ele>
        <time>2019-01-18T13:32:02Z</time>
      </trkpt>
      <trkpt lat="43.81639" lon="5.23689">
        <ele>284</ele>
        <time>2019-01-18T13:33:02Z</time>
      </trkpt>
      <trkpt lat="43.81641" lon="5.23719">
        <ele>284</ele>
        <time>2019-01-18T13:34:02Z</time>
      </trkpt>
      <trkpt lat="43.81636" lon="5.23822">
        <ele>283</ele>
        <time>2019-01-18T13:35:02Z</time>
      </trkpt>
      <trkpt lat="43.81636" lon="5.23841">
        <ele>283</ele>
        <time>2019-01-18T13:36:02Z</time>
      </trkpt>
      <trkpt lat="43.81665" lon="5.23916">
        <ele>284</ele>
        <time>2019-01-18T13:37:02Z</time>
      </trkpt>
      <trkpt lat="43.81685" lon="5.23932">
        <ele>282</ele>
        <time>2019-01-18T13:38:02Z</time>
      </trkpt>
      <trkpt lat="43.81688" lon="5.23961">
        <ele>283</ele>
        <time>2019-01-18T13:39:02Z</time>
      </trkpt>
      <trkpt lat="43.81708" lon="5.24029">
        <ele>284</ele>
        <time>2019-01-18T13:40:02Z</time>
      </trkpt>
      <trkpt lat="43.81716" lon="5.24088">
        <ele>286</ele>
        <time>2019-01-18T13:41:02Z</time>
      </trkpt>
      <trkpt lat="43.81735" lon="5.24147">
        <ele>286</ele>
        <time>2019-01-18T13:42:02Z</time>
      </trkpt>
      <trkpt lat="43.81737" lon="5.24181">
        <ele>287</ele>
        <time>2019-01-18T13:43:02Z</time>
      </trkpt>
      <trkpt lat="43.81739" lon="5.24258">
        <ele>287</ele>
        <time>2019-01-18T13:44:02Z</time>
      </trkpt>
      <trkpt lat="43.81736" lon="5.24425">
        <ele>283</ele>
        <time>2019-01-18T13:45:02Z</time>
      </trkpt>
      <trkpt lat="43.81733" lon="5.24455">
        <ele>284</ele>
        <time>2019-01-18T13:46:02Z</time>
      </trkpt>
      <trkpt lat="43.81754" lon="5.24655">
        <ele>284</ele>
        <time>2019-01-18T13:47:02Z</time>
      </trkpt>
      <trkpt lat="43.81752" lon="5.24682">
        <ele>285</ele>
        <time>2019-01-18T13:48:02Z</time>
      </trkpt>
      <trkpt lat="43.81752" lon="5.24703">
        <ele>285</ele>
        <time>2019-01-18T13:49:02Z</time>
      </trkpt>
      <trkpt lat="43.81749" lon="5.24809">
        <ele>287</ele>
        <time>2019-01-18T13:50:02Z</time>
      </trkpt>
      <trkpt lat="43.8175" lon="5.24829">
        <ele>288</ele>
        <time>2019-01-18T13:51:02Z</time>
      </trkpt>
      <trkpt lat="43.81742" lon="5.24975">
        <ele>302</ele>
        <time>2019-01-18T13:52:02Z</time>
      </trkpt>
      <trkpt lat="43.81732" lon="5.25057">
        <ele>308</ele>
        <time>2019-01-18T13:53:02Z</time>
      </trkpt>
      <trkpt lat="43.81728" lon="5.25136">
        <ele>310</ele>
        <time>2019-01-18T13:54:02Z</time>
      </trkpt>
      <trkpt lat="43.81729" lon="5.25315">
        <ele>310</ele>
        <time>2019-01-18T13:55:02Z</time>
      </trkpt>
      <trkpt lat="43.81733" lon="5.25439">
        <ele>313</ele>
        <time>2019-01-18T13:56:02Z</time>
      </trkpt>
      <trkpt lat="43.81718" lon="5.25521">
        <ele>317</ele>
        <time>2019-01-18T13:57:02Z</time>
      </trkpt>
      <trkpt lat="43.81722" lon="5.25547">
        <ele>317</ele>
        <time>2019-01-18T13:58:02Z</time>
      </trkpt>
      <trkpt lat="43.81717" lon="5.25582">
        <ele>319</ele>
        <time>2019-01-18T13:59:02Z</time>
      </trkpt>
      <trkpt lat="43.81721" lon="5.25671">
        <ele>320</ele>
        <time>2019-01-18T14:00:02Z</time>
      </trkpt>
      <trkpt lat="43.81708" lon="5.25745">
        <ele>323</ele>
        <time>2019-01-18T14:01:02Z</time>
      </trkpt>
      <trkpt lat="43.81692" lon="5.25812">
        <ele>324</ele>
        <time>2019-01-18T14:02:02Z</time>
      </trkpt>
      <trkpt lat="43.81682" lon="5.25987">
        <ele>328</ele>
        <time>2019-01-18T14:03:02Z</time>
      </trkpt>
      <trkpt lat="43.8167" lon="5.26031">
        <ele>330</ele>
        <time>2019-01-18T14:04:02Z</time>
      </trkpt>
      <trkpt lat="43.81622" lon="5.26111">
        <ele>339</ele>
        <time>2019-01-18T14:05:02Z</time>
      </trkpt>
      <trkpt lat="43.81633" lon="5.26193">
        <ele>333</ele>
        <time>2019-01-18T14:06:02Z</time>
      </trkpt>
      <trkpt lat="43.81636" lon="5.26236">
        <ele>334</ele>
        <time>2019-01-18T14:07:02Z</time>
      </trkpt>
      <trkpt lat="43.81631" lon="5.26308">
        <ele>335</ele>
        <time>2019-01-18T14:08:02Z</time>
      </trkpt>
      <trkpt lat="43.81622" lon="5.26359">
        <ele>336</ele>
        <time>2019-01-18T14:09:02Z</time>
      </trkpt>
      <trkpt lat="43.81624" lon="5.26444">
        <ele>333</ele>
        <time>2019-01-18T14:10:02Z</time>
      </trkpt>
      <trkpt lat="43.81659" lon="5.26632">
        <ele>326</ele>
        <time>2019-01-18T14:11:02Z</time>
      </trkpt>
      <trkpt lat="43.81658" lon="5.26704">
        <ele>327</ele>
        <time>2019-01-18T14:12:02Z</time>
      </trkpt>
      <trkpt lat="43.81679" lon="5.26726">
        <ele>325</ele>
        <time>2019-01-18T14:13:02Z</time>
      </trkpt>
      <trkpt lat="43.81709" lon="5.26736">
        <ele>323</ele>
        <time>2019-01-18T14:14:02Z</time>
      </trkpt>
      <trkpt lat="43.81715" lon="5.26779">
        <ele>323</ele>
        <time>2019-01-18T14:15:02Z</time>
      </trkpt>
      <trkpt lat="43.81702" lon="5.26888">
        <ele>330</ele>
        <time>2019-01-18T14:16:02Z</time>
      </trkpt>
      <trkpt lat="43.81718" lon="5.26959">
        <ele>332</ele>
        <time>2019-01-18T14:17:02Z</time>
      </trkpt>
      <trkpt lat="43.81722" lon="5.26989">
        <ele>332</ele>
        <time>2019-01-18T14:18:02Z</time>
      </trkpt>
      <trkpt lat="43.81618" lon="5.2723">
        <ele>345</ele>
        <time>2019-01-18T14:19:02Z</time>
      </trkpt>
      <trkpt lat="43.81603" lon="5.27273">
        <ele>346</ele>
        <time>2019-01-18T14:20:02Z</time>
      </trkpt>
      <trkpt lat="43.81528" lon="5.27384">
        <ele>347</ele>
        <time>2019-01-18T14:21:02Z</time>
      </trkpt>
      <trkpt lat="43.81507" lon="5.27575">
        <ele>337</ele>
        <time>2019-01-18T14:22:02Z</time>
      </trkpt>
      <trkpt lat="43.8163" lon="5.27605">
        <ele>324</ele>
        <time>2019-01-18T14:23:02Z</time>
      </trkpt>
      <trkpt lat="43.8165" lon="5.27628">
        <ele>322</ele>
        <time>2019-01-18T14:24:02Z</time>
      </trkpt>
      <trkpt lat="43.81836" lon="5.27691">
        <ele>315</ele>
        <time>2019-01-18T14:25:02Z</time>
      </trkpt>
      <trkpt lat="43.81865" lon="5.27708">
        <ele>316</ele>
        <time>2019-01-18T14:26:02Z</time>
      </trkpt>
      <trkpt lat="43.82045" lon="5.27788">
        <ele>304</ele>
        <time>2019-01-18T14:27:02Z</time>
      </trkpt>
      <trkpt lat="43.82084" lon="5.27801">
        <ele>301</ele>
        <time>2019-01-18T14:28:02Z</time>
      </trkpt>
      <trkpt lat="43.8213" lon="5.27809">
        <ele>298</ele>
        <time>2019-01-18T14:29:02Z</time>
      </trkpt>
      <trkpt lat="43.82163" lon="5.27825">
        <ele>295</ele>
        <time>2019-01-18T14:30:02Z</time>
      </trkpt>
      <trkpt lat="43.82224" lon="5.27869">
        <ele>289</ele>
        <time>2019-01-18T14:31:02Z</time>
      </trkpt>
      <trkpt lat="43.82282" lon="5.27864">
        <ele>286</ele>
        <time>2019-01-18T14:32:02Z</time>
      </trkpt>
      <trkpt lat="43.82361" lon="5.27896">
        <ele>279</ele>
        <time>2019-01-18T14:33:02Z</time>
      </trkpt>
      <trkpt lat="43.82381" lon="5.27911">
        <ele>277</ele>
        <time>2019-01-18T14:34:02Z</time>
      </trkpt>
      <trkpt lat="43.82446" lon="5.27998">
        <ele>271</ele>
        <time>2019-01-18T14:35:02Z</time>
      </trkpt>
      <trkpt lat="43.82396" lon="5.28123">
        <ele>274</ele>
        <time>2019-01-18T14:36:02Z</time>
      </trkpt>
      <trkpt lat="43.82371" lon="5.28236">
        <ele>273</ele>
        <time>2019-01-18T14:37:02Z</time>
      </trkpt>
      <trkpt lat="43.82392" lon="5.28248">
        <ele>271</ele>
        <time>2019-01-18T14:38:02Z</time>
      </trkpt>
      <trkpt lat="43.82447" lon="5.28269">
        <ele>266</ele>
        <time>2019-01-18T14:39:02Z</time>
      </trkpt>
      <trkpt lat="43.82468" lon="5.28288">
        <ele>263</ele>
        <time>2019-01-18T14:40:02Z</time>
      </trkpt>
      <trkpt lat="43.82487" lon="5.28271">
        <ele>264</ele>
        <time>2019-01-18T14:41:02Z</time>
      </trkpt>
      <trkpt lat="43.82516" lon="5.28217">
        <ele>266</ele>
        <time>2019-01-18T14:42:02Z</time>
      </trkpt>
      <trkpt lat="43.82538" lon="5.2816">
        <ele>265</ele>
        <time>2019-01-18T14:43:02Z</time>
      </trkpt>
      <trkpt lat="43.82554" lon="5.28119">
        <ele>262</ele>
        <time>2019-01-18T14:44:02Z</time>
      </trkpt>
      <trkpt lat="43.82575" lon="5.28115">
        <ele>260</ele>
        <time>2019-01-18T14:45:02Z</time>
      </trkpt>
      <trkpt lat="43.82631" lon="5.28144">
        <ele>256</ele>
        <time>2019-01-18T14:46:02Z</time>
      </trkpt>
      <trkpt lat="43.82685" lon="5.28246">
        <ele>248</ele>
        <time>2019-01-18T14:47:02Z</time>
      </trkpt>
      <trkpt lat="43.82762" lon="5.2838">
        <ele>235</ele>
        <time>2019-01-18T14:48:02Z</time>
      </trkpt>
      <trkpt lat="43.82765" lon="5.28461">
        <ele>230</ele>
        <time>2019-01-18T14:49:02Z</time>
      </trkpt>
      <trkpt lat="43.82771" lon="5.28481">
        <ele>229</ele>
        <time>2019-01-18T14:50:02Z</time>
      </trkpt>
      <trkpt lat="43.82785" lon="5.28514">
        <ele>227</ele>
        <time>2019-01-18T14:51:02Z</time>
      </trkpt>
      <trkpt lat="43.82795" lon="5.28569">
        <ele>227</ele>
        <time>2019-01-18T14:52:02Z</time>
      </trkpt>
      <trkpt lat="43.82815" lon="5.28575">
        <ele>226</ele>
        <time>2019-01-18T14:53:02Z</time>
      </trkpt>
      <trkpt lat="43.82848" lon="5.28574">
        <ele>225</ele>
        <time>2019-01-18T14:54:02Z</time>
      </trkpt>
      <trkpt lat="43.82862" lon="5.28583">
        <ele>225</ele>
        <time>2019-01-18T14:55:02Z</time>
      </trkpt>
      <trkpt lat="43.82884" lon="5.28589">
        <ele>225</ele>
        <time>2019-01-18T14:56:02Z</time>
      </trkpt>
      <trkpt lat="43.82925" lon="5.28592">
        <ele>224</ele>
        <time>2019-01-18T14:57:02Z</time>
      </trkpt>
      <trkpt lat="43.82979" lon="5.28585">
        <ele>222</ele>
        <time>2019-01-18T14:58:02Z</time>
      </trkpt>
      <trkpt lat="43.83047" lon="5.28591">
        <ele>220</ele>
        <time>2019-01-18T14:59:02Z</time>
      </trkpt>
      <trkpt lat="43.83083" lon="5.28603">
        <ele>219</ele>
        <time>2019-01-18T15:00:02Z</time>
      </trkpt>
      <trkpt lat="43.831" lon="5.28615">
        <ele>218</ele>
        <time>2019-01-18T15:01:02Z</time>
      </trkpt>
      <trkpt lat="43.83117" lon="5.28651">
        <ele>219</ele>
        <time>2019-01-18T15:02:02Z</time>
      </trkpt>
      <trkpt lat="43.83148" lon="5.2867">
        <ele>218</ele>
        <time>2019-01-18T15:03:02Z</time>
      </trkpt>
      <trkpt lat="43.83179" lon="5.28692">
        <ele>217</ele>
        <time>2019-01-18T15:04:02Z</time>
      </trkpt>
      <trkpt lat="43.83193" lon="5.28754">
        <ele>220</ele>
        <time>2019-01-18T15:05:02Z</time>
      </trkpt>
      <trkpt lat="43.83199" lon="5.28829">
        <ele>222</ele>
        <time>2019-01-18T15:06:02Z</time>
      </trkpt>
      <trkpt lat="43.83206" lon="5.28932">
        <ele>226</ele>
        <time>2019-01-18T15:07:02Z</time>
      </trkpt>
      <trkpt lat="43.83277" lon="5.28906">
        <ele>221</ele>
        <time>2019-01-18T15:08:02Z</time>
      </trkpt>
      <trkpt lat="43.8335" lon="5.28848">
        <ele>216</ele>
        <time>2019-01-18T15:09:02Z</time>
      </trkpt>
      <trkpt lat="43.83385" lon="5.28823">
        <ele>215</ele>
        <time>2019-01-18T15:10:02Z</time>
      </trkpt>
      <trkpt lat="43.83403" lon="5.28796">
        <ele>213</ele>
        <time>2019-01-18T15:11:02Z</time>
      </trkpt>
      <trkpt lat="43.83501" lon="5.28776">
        <ele>202</ele>
        <time>2019-01-18T15:12:02Z</time>
      </trkpt>
      <trkpt lat="43.83542" lon="5.2875">
        <ele>199</ele>
        <time>2019-01-18T15:13:02Z</time>
      </trkpt>
      <trkpt lat="43.83595" lon="5.28694">
        <ele>197</ele>
        <time>2019-01-18T15:14:02Z</time>
      </trkpt>
      <trkpt lat="43.83708" lon="5.285">
        <ele>192</ele>
        <time>2019-01-18T15:15:02Z</time>
      </trkpt>
      <trkpt lat="43.83719" lon="5.28473">
        <ele>191</ele>
        <time>2019-01-18T15:16:02Z</time>
      </trkpt>
      <trkpt lat="43.8378" lon="5.28391">
        <ele>190</ele>
        <time>2019-01-18T15:17:02Z</time>
      </trkpt>
      <trkpt lat="43.83895" lon="5.28399">
        <ele>188</ele>
        <time>2019-01-18T15:18:02Z</time>
      </trkpt>
      <trkpt lat="43.83929" lon="5.28388">
        <ele>187</ele>
        <time>2019-01-18T15:19:02Z</time>
      </trkpt>
      <trkpt lat="43.84013" lon="5.28415">
        <ele>184</ele>
        <time>2019-01-18T15:20:02Z</time>
      </trkpt>
      <trkpt lat="43.84122" lon="5.28437">
        <ele>181</ele>
        <time>2019-01-18T15:21:02Z</time>
      </trkpt>
      <trkpt lat="43.84189" lon="5.2842">
        <ele>181</ele>
        <time>2019-01-18T15:22:02Z</time>
      </trkpt>
      <trkpt lat="43.84325" lon="5.28412">
        <ele>177</ele>
        <time>2019-01-18T15:23:02Z</time>
      </trkpt>
      <trkpt lat="43.84523" lon="5.28422">
        <ele>174</ele>
        <time>2019-01-18T15:24:02Z</time>
      </trkpt>
      <trkpt lat="43.84565" lon="5.28436">
        <ele>174</ele>
        <time>2019-01-18T15:25:02Z</time>
      </trkpt>
      <trkpt lat="43.84683" lon="5.28477">
        <ele>172</ele>
        <time>2019-01-18T15:26:02Z</time>
      </trkpt>
      <trkpt lat="43.8478" lon="5.28513">
        <ele>170</ele>
        <time>2019-01-18T15:27:02Z</time>
      </trkpt>
      <trkpt lat="43.84872" lon="5.28609">
        <ele>168</ele>
        <time>2019-01-18T15:28:02Z</time>
      </trkpt>
      <trkpt lat="43.84952" lon="5.28638">
        <ele>169</ele>
        <time>2019-01-18T15:29:02Z</time>
      </trkpt>
      <trkpt lat="43.85066" lon="5.28747">
        <ele>167</ele>
        <time>2019-01-18T15:30:02Z</time>
      </trkpt>
      <trkpt lat="43.84936" lon="5.28917">
        <ele>170</ele>
        <time>2019-01-18T15:31:02Z</time>
      </trkpt>
    </trkseg>
  </trk>
</gpx>